logo
Rechercher aéroport 
image banner adimage banner adimage banner ad
image banner ad

EKVG - Vagar

Situé à All Faeroe Islands, Faroe Islands

ICAO - EKVG, IATA - FAE

Données fournies par Airmate  

Information générale

Coordonnées: N62°3'49" W7°16'38"
Élévation : 280 feet MSL.
Variation magnétique : -6.8° East
Voir autres Aéroports à (unassigned)

Données opérationnelles

Special qualification required
Heure actuelle UTC:
Heure actuelle locale:
Météo
METAR: EKVG 070050Z AUTO 27017KT 240V300 9999 BKN035/// 05/M02 Q1019 RMK SCT035/// WIND SKEID 27024G53KT 210V310
TAF: TAF EKVG 031410Z 0315/0321 15020G30KT 3500 RADZ BKN006 OVC012 TEMPO 0315/0318 15020G30KT BECMG 0318/0320 19018KT 1200 DZ BR OVC005
Voir NOTAMs / SUP AIP / TFR affectant cet aéroport [VIEW]
Fréquences de communication: [VIEW]

Pistes:

Identifiant RWYQFULongueur (ft)Largeur (ft)SurfaceLDA (ft)
12118°590298ASPH5902
30298°590298ASPH5902

Coordonnées de l'aéroport

Adresse: All Faeroe Islands Faroe Islands

Vue satellite de EKVG